Time;durP1;ratioP1;P1;durP2;ratioP2;P2;SDS_P1;SDS_P2;PMS_P1;PMS_P2;Temp;Humidity;BMP_temperature;BMP_pressure;BME280_temperature;BME280_humidity;BME280_pressure;Samples;Min_cycle;Max_cycle;Signal;HPM_P1;HPM_P2
2023/04/01 00:00:18;;;;;;;0.10;0.10;;;;;;;12.83;76.13;99637.44;7347906;19;20498;-60
2023/04/01 00:02:43;;;;;;;0.00;0.00;;;;;;;12.83;76.41;99638.28;7357273;19;20027;-60
2023/04/01 00:05:10;;;;;;;0.10;0.10;;;;;;;12.83;76.49;99638.28;7353764;19;20066;-60
2023/04/01 00:07:36;;;;;;;0.00;0.00;;;;;;;12.84;76.47;99647.00;7359217;19;20014;-60
2023/04/01 00:10:02;;;;;;;0.00;0.00;;;;;;;12.80;76.56;99640.19;7351879;19;20049;-60
2023/04/01 00:12:28;;;;;;;0.10;0.10;;;;;;;12.84;76.50;99649.59;7355676;19;20011;-60
2023/04/01 00:14:53;;;;;;;0.00;0.00;;;;;;;12.83;76.37;99648.75;7354995;19;20035;-60
2023/04/01 00:17:18;;;;;;;0.00;0.00;;;;;;;12.83;76.26;99654.00;7354029;19;20015;-60
2023/04/01 00:19:44;;;;;;;0.10;0.10;;;;;;;12.83;76.15;99650.53;7356398;19;20006;-60
2023/04/01 00:22:11;;;;;;;0.10;0.10;;;;;;;12.82;76.20;99648.81;7353356;19;20500;-60
2023/04/01 00:24:37;;;;;;;0.08;0.08;;;;;;;12.81;75.82;99647.97;7353776;19;20858;-60
2023/04/01 00:27:03;;;;;;;0.00;0.00;;;;;;;12.80;76.11;99655.91;7353485;19;20014;-60
2023/04/01 00:29:30;;;;;;;0.10;0.10;;;;;;;12.78;75.90;99657.78;7353821;19;20031;-60
2023/04/01 00:31:56;;;;;;;0.00;0.00;;;;;;;12.79;75.96;99656.84;7355703;19;20754;-60
2023/04/01 00:34:23;;;;;;;0.10;0.10;;;;;;;12.77;76.24;99659.50;7355840;19;20073;-60
2023/04/01 00:36:49;;;;;;;0.10;0.10;;;;;;;12.76;75.72;99668.31;7355227;19;20014;-60
2023/04/01 00:39:15;;;;;;;0.10;0.10;;;;;;;12.75;75.70;99657.91;7356708;19;20044;-60
2023/04/01 00:41:41;;;;;;;0.00;0.00;;;;;;;12.73;76.08;99658.84;7355402;19;20031;-60
2023/04/01 00:44:20;;;;;;;0.10;0.10;;;;;;;12.32;75.39;99592.72;7354153;19;20026;-60
2023/04/01 00:46:45;;;;;;;0.10;0.10;;;;;;;12.72;75.68;99661.50;7356534;19;20010;-60
2023/04/01 00:49:13;;;;;;;0.10;0.10;;;;;;;12.60;75.54;99647.25;7356473;19;20501;-60
2023/04/01 00:51:40;;;;;;;0.00;0.00;;;;;;;12.68;75.74;99660.81;7350222;19;20006;-60
2023/04/01 00:54:08;;;;;;;0.10;0.10;;;;;;;12.66;75.21;99662.66;7355174;19;20015;-60
2023/04/01 00:56:35;;;;;;;;;;;;;;;12.67;74.66;99659.13;7354275;19;20506;-60
2023/04/01 00:59:14;;;;;;;0.00;0.00;;;;;;;12.64;74.73;99661.88;7355669;19;20732;-60
2023/04/01 01:01:40;;;;;;;0.00;0.00;;;;;;;12.55;75.36;99657.09;7351414;19;20018;-59
2023/04/01 01:04:05;;;;;;;0.08;0.08;;;;;;;12.55;75.15;99659.69;7356010;19;20034;-60
2023/04/01 01:06:42;;;;;;;0.00;0.00;;;;;;;12.55;75.33;99670.19;7354778;19;20020;-60
2023/04/01 01:09:08;;;;;;;0.10;0.10;;;;;;;12.51;75.71;99671.25;7354449;19;20052;-60
2023/04/01 01:11:42;;;;;;;0.10;0.10;;;;;;;12.50;75.57;99672.16;7352965;19;20678;-60
2023/04/01 01:14:17;;;;;;;0.00;0.00;;;;;;;12.48;75.44;99668.78;7349356;19;20049;-60
2023/04/01 01:16:46;;;;;;;0.00;0.00;;;;;;;12.46;76.06;99675.84;7355075;19;20014;-60
2023/04/01 01:19:17;;;;;;;0.03;0.03;;;;;;;12.43;75.94;99670.75;7352055;19;20983;-60
2023/04/01 01:22:06;;;;;;;0.00;0.00;;;;;;;12.41;76.22;99670.81;7354006;19;20021;-60
2023/04/01 01:24:45;;;;;;;0.00;0.00;;;;;;;12.42;75.90;99669.91;7353833;19;20098;-60
2023/04/01 01:27:16;;;;;;;0.00;0.00;;;;;;;12.39;75.82;99674.44;7356999;19;20143;-60
2023/04/01 01:30:01;;;;;;;0.00;0.00;;;;;;;12.44;75.66;99682.94;7352901;19;20418;-60
2023/04/01 01:32:55;;;;;;;0.05;0.05;;;;;;;12.43;75.38;99682.09;7352243;19;20038;-60
2023/04/01 01:35:32;;;;;;;0.00;0.00;;;;;;;12.40;75.51;99678.75;7250469;19;2004267;-60
2023/04/01 01:38:03;;;;;;;;;;;;;;;12.42;74.60;99679.56;7355885;19;20390;-60
2023/04/01 01:40:32;;;;;;;0.00;0.00;;;;;;;12.38;75.51;99685.84;7353148;19;19994;-60
2023/04/01 01:43:04;;;;;;;0.00;0.00;;;;;;;12.33;75.87;99679.97;7353719;19;20017;-60
2023/04/01 01:45:31;;;;;;;0.10;0.10;;;;;;;12.34;75.78;99692.97;7354873;19;20002;-60
2023/04/01 01:48:00;;;;;;;0.00;0.00;;;;;;;12.33;76.28;99691.28;7350308;19;20027;-60
2023/04/01 01:50:26;;;;;;;0.00;0.00;;;;;;;12.32;76.23;99688.75;7356403;19;20019;-60
2023/04/01 01:53:06;;;;;;;0.00;0.00;;;;;;;12.34;75.93;99692.13;7352889;19;20709;-60
2023/04/01 01:55:35;;;;;;;0.10;0.10;;;;;;;12.32;76.00;99686.13;7347924;19;20006;-60
2023/04/01 01:58:40;;;;;;;0.00;0.00;;;;;;;12.34;76.00;99698.22;7342085;19;20090;-59
2023/04/01 02:01:10;;;;;;;0.10;0.10;;;;;;;12.25;76.35;99682.94;7250341;19;2004406;-60
2023/04/01 02:03:39;;;;;;;0.00;0.00;;;;;;;12.32;75.71;99692.22;7347407;19;20056;-60
2023/04/01 02:06:10;;;;;;;0.00;0.00;;;;;;;12.33;75.67;99700.91;7346468;19;20830;-60
2023/04/01 02:08:41;;;;;;;0.10;0.10;;;;;;;12.32;75.75;99700.06;7354355;19;20564;-60
2023/04/01 02:11:09;;;;;;;0.00;0.00;;;;;;;12.30;75.89;99701.88;7351607;19;20013;-60
2023/04/01 02:13:45;;;;;;;0.10;0.10;;;;;;;12.33;75.91;99708.78;7352713;19;20029;-60
2023/04/01 02:16:22;;;;;;;0.00;0.00;;;;;;;12.27;76.36;99701.19;7351263;19;20038;-60
2023/04/01 02:18:52;;;;;;;0.00;0.00;;;;;;;12.30;76.51;99714.13;7352009;19;20460;-60
2023/04/01 02:21:22;;;;;;;0.00;0.00;;;;;;;12.30;76.26;99716.75;7349864;19;20010;-60
2023/04/01 02:23:49;;;;;;;0.08;0.08;;;;;;;12.29;76.06;99720.28;7349573;19;20018;-60
2023/04/01 02:26:15;;;;;;;0.00;0.00;;;;;;;12.28;76.14;99718.59;7354667;19;20014;-60
2023/04/01 02:28:42;;;;;;;0.00;0.00;;;;;;;12.18;76.24;99703.31;7351404;19;20010;-60
2023/04/01 02:31:10;;;;;;;0.10;0.10;;;;;;;12.29;76.15;99720.28;7354222;19;20010;-60
2023/04/01 02:33:38;;;;;;;0.10;0.10;;;;;;;12.30;76.29;99721.97;7352392;19;20014;-60
2023/04/01 02:36:04;;;;;;;0.00;0.00;;;;;;;12.20;76.48;99711.91;7354881;19;20038;-60
2023/04/01 02:38:29;;;;;;;0.10;0.10;;;;;;;12.23;76.58;99720.56;7350490;19;20109;-60
2023/04/01 02:41:00;;;;;;;0.08;0.08;;;;;;;12.30;76.59;99727.22;7353606;19;20002;-60
2023/04/01 02:43:26;;;;;;;0.10;0.10;;;;;;;12.27;76.33;99727.38;7351351;19;20014;-60
2023/04/01 02:45:52;;;;;;;0.08;0.08;;;;;;;12.27;76.27;99728.22;7353995;19;20171;-61
2023/04/01 02:48:18;;;;;;;0.10;0.10;;;;;;;12.27;76.23;99728.22;7351621;19;20834;-60
2023/04/01 02:50:43;;;;;;;0.10;0.10;;;;;;;12.27;76.73;99733.47;7351969;19;20624;-60
2023/04/01 02:53:09;;;;;;;0.10;0.10;;;;;;;12.24;76.73;99732.72;7346961;19;20049;-60
2023/04/01 02:55:34;;;;;;;0.00;0.00;;;;;;;12.25;76.82;99734.44;7353247;19;20014;-59
2023/04/01 02:58:00;;;;;;;0.08;0.08;;;;;;;12.28;76.55;99734.31;7348325;19;20113;-60
2023/04/01 03:00:25;;;;;;;0.00;0.00;;;;;;;12.28;76.80;99739.53;7354001;19;20031;-60
2023/04/01 03:02:52;;;;;;;0.00;0.00;;;;;;;12.28;76.49;99739.53;7349534;19;20014;-60
2023/04/01 03:05:17;;;;;;;0.10;0.10;;;;;;;12.27;76.62;99741.31;7333070;19;20018;-60
2023/04/01 03:07:43;;;;;;;0.10;0.10;;;;;;;12.26;76.46;99736.97;7349198;19;20050;-60
2023/04/01 03:10:09;;;;;;;0.10;0.10;;;;;;;12.28;76.44;99742.16;7354648;19;21169;-60
2023/04/01 03:12:34;;;;;;;0.05;0.05;;;;;;;12.28;76.88;99750.00;7346781;19;21714;-60
2023/04/01 03:15:00;;;;;;;0.10;0.10;;;;;;;12.28;76.72;99748.25;7355735;19;20030;-60
2023/04/01 03:17:25;;;;;;;0.00;0.00;;;;;;;12.29;76.86;99757.78;7349773;19;20125;-60
2023/04/01 03:19:51;;;;;;;0.00;0.00;;;;;;;12.26;76.98;99751.81;7353037;19;20007;-60
2023/04/01 03:22:16;;;;;;;0.00;0.00;;;;;;;12.29;77.20;99754.31;7350055;19;20018;-60
2023/04/01 03:24:42;;;;;;;0.10;0.10;;;;;;;12.30;76.37;99758.63;7351682;19;20041;-61
2023/04/01 03:27:07;;;;;;;0.03;0.03;;;;;;;12.25;76.56;99765.84;7351612;19;20017;-60
2023/04/01 03:29:32;;;;;;;0.08;0.08;;;;;;;12.30;76.83;99763.88;7333790;19;20006;-60
2023/04/01 03:31:58;;;;;;;0.03;0.03;;;;;;;12.30;76.55;99764.72;7353748;19;20002;-60
2023/04/01 03:34:24;;;;;;;0.00;0.00;;;;;;;12.31;76.86;99770.78;7351513;19;20036;-60
2023/04/01 03:36:51;;;;;;;0.10;0.10;;;;;;;12.19;76.46;99751.25;7357006;19;20395;-60
2023/04/01 03:39:18;;;;;;;0.00;0.00;;;;;;;12.22;76.76;99766.00;7360579;19;20108;-60
2023/04/01 03:41:44;;;;;;;0.00;0.00;;;;;;;12.25;76.55;99765.84;7363271;19;20095;-60
2023/04/01 03:44:09;;;;;;;0.00;0.00;;;;;;;11.91;76.65;99709.75;7357419;19;20026;-60
2023/04/01 03:46:35;;;;;;;0.10;0.10;;;;;;;12.32;76.55;99778.59;7361812;19;20010;-60
2023/04/01 03:49:01;;;;;;;0.10;0.10;;;;;;;12.17;76.52;99751.34;7360418;19;20036;-60
2023/04/01 03:51:26;;;;;;;0.08;0.08;;;;;;;12.31;76.12;99781.25;7361363;19;20010;-62
2023/04/01 03:53:52;;;;;;;0.00;0.00;;;;;;;12.31;76.34;99781.25;7353920;19;20122;-60
2023/04/01 03:56:17;;;;;;;0.00;0.00;;;;;;;12.20;76.58;99766.88;7358990;19;20006;-60
2023/04/01 03:58:42;;;;;;;0.08;0.08;;;;;;;12.30;76.27;99784.81;7360580;19;20030;-60
2023/04/01 04:01:20;;;;;;;0.00;0.00;;;;;;;12.30;76.09;99787.44;7359142;19;20033;-60
2023/04/01 04:03:46;;;;;;;0.10;0.10;;;;;;;12.29;76.42;99794.44;7358846;19;20011;-60
2023/04/01 04:06:17;;;;;;;0.08;0.08;;;;;;;12.21;76.47;99783.44;7361642;19;20026;-60
2023/04/01 04:08:44;;;;;;;0.00;0.00;;;;;;;12.26;76.47;99788.47;7357711;19;20015;-60
2023/04/01 04:11:10;;;;;;;0.10;0.10;;;;;;;11.96;76.26;99747.03;7361440;19;21173;-60
2023/04/01 04:13:35;;;;;;;0.03;0.03;;;;;;;12.28;76.22;99804.97;7367518;19;20100;-60
2023/04/01 04:16:02;;;;;;;0.00;0.00;;;;;;;12.25;76.46;99798.09;7367341;19;20094;-60
2023/04/01 04:18:28;;;;;;;0.05;0.05;;;;;;;12.26;76.55;99802.41;7364246;19;21201;-60
2023/04/01 04:20:53;;;;;;;0.10;0.10;;;;;;;12.27;76.28;99808.53;7360212;19;20026;-60
2023/04/01 04:23:19;;;;;;;0.10;0.10;;;;;;;12.27;76.22;99803.28;7358402;19;20404;-60
2023/04/01 04:25:59;;;;;;;0.10;0.10;;;;;;;12.29;76.10;99804.06;7357530;19;20015;-60
2023/04/01 04:28:26;;;;;;;0.08;0.08;;;;;;;12.25;76.25;99798.09;7359936;19;20014;-60
2023/04/01 04:30:51;;;;;;;0.00;0.00;;;;;;;12.25;76.44;99807.72;7358606;19;20042;-60
2023/04/01 04:33:17;;;;;;;0.00;0.00;;;;;;;12.23;76.19;99814.81;7359575;19;20006;-60
2023/04/01 04:35:42;;;;;;;0.08;0.08;;;;;;;12.22;76.14;99811.34;7359110;19;20014;-60
2023/04/01 04:38:08;;;;;;;0.10;0.10;;;;;;;12.20;76.16;99814.00;7356009;19;20010;-61
2023/04/01 04:40:36;;;;;;;0.00;0.00;;;;;;;12.20;75.91;99821.84;7356153;19;20486;-60
2023/04/01 04:43:01;;;;;;;0.00;0.00;;;;;;;12.17;75.89;99826.41;7359954;19;20011;-59
2023/04/01 04:45:27;;;;;;;0.10;0.10;;;;;;;12.15;76.26;99829.06;7358284;19;20006;-60
2023/04/01 04:47:52;;;;;;;0.00;0.00;;;;;;;12.12;76.40;99831.81;7356098;19;20025;-60
2023/04/01 04:50:18;;;;;;;0.00;0.00;;;;;;;11.75;76.60;99782.78;7355067;19;20085;-60
2023/04/01 04:52:43;;;;;;;0.00;0.00;;;;;;;12.10;76.44;99841.50;7358732;19;20018;-60
2023/04/01 04:55:08;;;;;;;0.05;0.05;;;;;;;12.11;76.66;99845.78;7357040;19;20593;-60
2023/04/01 04:57:34;;;;;;;0.00;0.00;;;;;;;12.10;76.91;99849.34;7356820;19;20014;-60
2023/04/01 04:59:59;;;;;;;0.10;0.10;;;;;;;12.10;76.63;99851.94;7358381;19;20027;-60
2023/04/01 05:02:25;;;;;;;0.00;0.00;;;;;;;12.10;77.02;99851.94;7357834;19;20018;-60
2023/04/01 05:04:50;;;;;;;0.00;0.00;;;;;;;11.98;77.03;99836.78;7358811;19;20034;-60
2023/04/01 05:07:15;;;;;;;0.00;0.00;;;;;;;12.11;76.68;99858.03;7357876;19;20014;-60
2023/04/01 05:09:41;;;;;;;0.00;0.00;;;;;;;12.13;77.11;99870.16;7358425;19;20017;-60
2023/04/01 05:12:06;;;;;;;0.08;0.08;;;;;;;12.13;76.94;99872.78;7357893;19;20037;-60
2023/04/01 05:14:32;;;;;;;0.00;0.00;;;;;;;12.12;77.10;99871.06;7358109;19;20043;-60
2023/04/01 05:16:57;;;;;;;0.10;0.10;;;;;;;12.13;76.74;99872.78;7357028;19;20633;-60
2023/04/01 05:19:22;;;;;;;0.00;0.00;;;;;;;12.15;77.01;99885.78;7356001;19;20074;-60
2023/04/01 05:21:48;;;;;;;0.10;0.10;;;;;;;12.15;77.24;99886.63;7358298;19;20029;-60
2023/04/01 05:24:13;;;;;;;0.10;0.10;;;;;;;12.16;76.80;99890.94;7356891;19;20566;-60
2023/04/01 05:26:39;;;;;;;0.10;0.10;;;;;;;12.14;76.73;99890.16;7357329;19;20021;-60
2023/04/01 05:29:05;;;;;;;0.00;0.00;;;;;;;12.16;76.93;99898.81;7358319;19;20010;-60
2023/04/01 05:31:30;;;;;;;0.00;0.00;;;;;;;12.15;77.19;99897.09;7356795;19;20408;-60
2023/04/01 05:33:56;;;;;;;0.10;0.10;;;;;;;12.15;77.21;99902.34;7356214;19;20822;-60
2023/04/01 05:36:21;;;;;;;0.10;0.10;;;;;;;12.18;76.86;99914.47;7357822;19;20086;-60
2023/04/01 05:38:47;;;;;;;0.10;0.10;;;;;;;12.17;76.84;99910.16;7355604;19;20011;-60
2023/04/01 05:41:13;;;;;;;0.00;0.00;;;;;;;12.17;77.23;99921.47;7358590;19;20014;-60
2023/04/01 05:43:40;;;;;;;0.00;0.00;;;;;;;12.17;76.86;99926.69;7357045;19;20325;-60
2023/04/01 05:46:05;;;;;;;0.00;0.00;;;;;;;11.80;76.93;99866.28;7356425;19;20014;-60
2023/04/01 05:48:34;;;;;;;0.10;0.10;;;;;;;12.20;76.98;99934.41;7355148;19;20454;-60
2023/04/01 05:51:00;;;;;;;0.00;0.00;;;;;;;12.18;76.87;99944.09;7357169;19;20017;-60
2023/04/01 05:53:25;;;;;;;0.10;0.10;;;;;;;12.17;76.90;99936.31;7356460;19;20010;-60
2023/04/01 05:55:50;;;;;;;0.00;0.00;;;;;;;12.19;76.88;99944.94;7355330;19;20025;-61
2023/04/01 05:58:16;;;;;;;0.00;0.00;;;;;;;12.12;76.96;99944.34;7345280;19;20022;-60
2023/04/01 06:00:41;;;;;;;0.00;0.00;;;;;;;12.18;76.84;99949.34;7353362;19;20010;-60
2023/04/01 06:03:07;;;;;;;0.10;0.10;;;;;;;12.17;77.29;99957.25;7353327;19;20038;-60
2023/04/01 06:05:41;;;;;;;0.10;0.10;;;;;;;12.13;76.81;99951.28;7354188;19;20780;-60
2023/04/01 06:08:20;;;;;;;0.10;0.10;;;;;;;12.18;76.84;99959.81;7354355;19;20464;-60
2023/04/01 06:11:13;;;;;;;0.10;0.10;;;;;;;12.17;76.85;99973.81;7350193;19;20010;-60
2023/04/01 06:13:44;;;;;;;0.00;0.00;;;;;;;12.17;77.28;99978.19;7253857;19;2004407;-60
2023/04/01 06:16:31;;;;;;;0.10;0.10;;;;;;;12.16;76.88;99987.78;7356062;19;20010;-59
2023/04/01 06:19:30;;;;;;;0.05;0.05;;;;;;;12.15;76.64;99985.25;7350034;19;20042;-60
2023/04/01 06:22:04;;;;;;;0.00;0.00;;;;;;;12.09;77.29;99988.97;7252611;19;2004265;-60
2023/04/01 06:24:59;;;;;;;0.00;0.00;;;;;;;12.13;77.14;99998.41;7351980;19;20991;-60
2023/04/01 06:27:43;;;;;;;0.10;0.10;;;;;;;12.12;76.75;100001.94;7245461;19;2004415;-60
2023/04/01 06:30:27;;;;;;;0.00;0.00;;;;;;;12.13;76.86;100014.09;7355029;19;20743;-61
2023/04/01 06:33:04;;;;;;;0.10;0.10;;;;;;;12.10;77.47;100019.44;7351380;19;20037;-61
2023/04/01 06:35:32;;;;;;;0.10;0.10;;;;;;;12.08;77.41;100016.06;7355354;19;20087;-60
2023/04/01 06:38:23;;;;;;;0.10;0.10;;;;;;;12.13;77.45;100027.19;7351073;19;21562;-60
2023/04/01 06:41:07;;;;;;;0.10;0.10;;;;;;;12.12;77.16;100027.25;7356080;19;20597;-60
2023/04/01 06:44:19;;;;;;;0.10;0.10;;;;;;;12.14;76.86;100036.75;7351413;19;20432;-60
2023/04/01 06:46:58;;;;;;;0.10;0.10;;;;;;;12.14;77.51;100041.97;7251187;19;2004230;-60
2023/04/01 06:49:41;;;;;;;0.10;0.10;;;;;;;12.14;77.17;100047.22;7353404;19;20463;-60
2023/04/01 06:52:37;;;;;;;0.10;0.10;;;;;;;12.18;77.26;100055.81;7354472;19;20685;-60
2023/04/01 06:55:20;;;;;;;0.00;0.00;;;;;;;12.18;77.21;100059.25;7252355;19;2004303;-60
2023/04/01 06:57:53;;;;;;;0.10;0.10;;;;;;;12.13;77.57;100049.91;7349829;19;20412;-60
2023/04/01 07:00:30;;;;;;;0.00;0.00;;;;;;;12.18;77.26;100064.50;7352504;19;20006;-60
2023/04/01 07:03:06;;;;;;;0.00;0.00;;;;;;;12.18;77.62;100080.22;7351246;19;20015;-61
2023/04/01 07:05:33;;;;;;;0.10;0.10;;;;;;;12.19;77.70;100076.66;7351335;19;20027;-60
2023/04/01 07:08:03;;;;;;;0.00;0.00;;;;;;;12.22;77.60;100085.34;7351854;19;20019;-60
2023/04/01 07:10:57;;;;;;;0.10;0.10;;;;;;;12.25;77.53;100085.19;7352553;19;20509;-60
2023/04/01 07:13:31;;;;;;;0.00;0.00;;;;;;;12.26;77.46;100097.38;7355987;19;20052;-60
2023/04/01 07:16:20;;;;;;;0.00;0.00;;;;;;;12.28;77.21;100096.41;7360992;19;20108;-60
2023/04/01 07:18:51;;;;;;;0.00;0.00;;;;;;;12.28;77.40;100100.78;7350904;19;20014;-60
2023/04/01 07:21:36;;;;;;;0.08;0.08;;;;;;;12.32;76.93;100107.63;7356163;19;20014;-60
2023/04/01 07:24:08;;;;;;;0.10;0.10;;;;;;;12.33;77.48;100109.31;7353988;19;20014;-60
2023/04/01 07:26:34;;;;;;;0.10;0.10;;;;;;;12.32;77.47;100123.34;7357546;19;20003;-60
2023/04/01 07:29:00;;;;;;;0.10;0.10;;;;;;;12.29;77.50;100123.44;7358146;19;20016;-60
2023/04/01 07:31:28;;;;;;;0.10;0.10;;;;;;;12.35;77.24;100126.66;7353558;19;20773;-60
2023/04/01 07:34:12;;;;;;;0.00;0.00;;;;;;;12.38;77.46;100133.56;7355905;19;20051;-60
2023/04/01 07:37:01;;;;;;;0.00;0.00;;;;;;;12.41;77.34;100134.25;7357337;19;20006;-60
2023/04/01 07:40:11;;;;;;;0.10;0.10;;;;;;;12.46;76.88;100141.94;7348316;19;20014;-63
2023/04/01 07:42:43;;;;;;;0.03;0.03;;;;;;;12.46;77.07;100152.41;7233298;19;2004083;-64
2023/04/01 07:45:24;;;;;;;0.00;0.00;;;;;;;12.49;77.21;100152.31;7352994;19;20042;-64
2023/04/01 07:48:32;;;;;;;0.00;0.00;;;;;;;12.52;77.08;100161.81;7354436;19;20014;-64
2023/04/01 07:51:02;;;;;;;0.00;0.00;;;;;;;12.49;76.99;100173.25;7250553;19;2004368;-63
2023/04/01 07:53:37;;;;;;;0.00;0.00;;;;;;;12.49;77.05;100173.25;7346787;19;20022;-63
2023/04/01 07:56:15;;;;;;;0.10;0.10;;;;;;;12.53;77.25;100182.72;7348882;19;20650;-64
2023/04/01 07:58:49;;;;;;;0.10;0.10;;;;;;;12.53;77.21;100182.72;7324812;19;20066;-64
2023/04/01 08:01:33;;;;;;;0.00;0.00;;;;;;;12.51;77.06;100192.38;7343082;19;21394;-64
2023/04/01 08:04:21;;;;;;;0.10;0.10;;;;;;;12.52;77.25;100194.09;7346842;19;20038;-64
2023/04/01 08:06:49;;;;;;;0.03;0.03;;;;;;;12.55;76.85;100207.06;7342010;19;20018;-64
2023/04/01 08:09:15;;;;;;;0.00;0.00;;;;;;;12.54;77.06;100212.38;7342527;19;20007;-64
2023/04/01 08:12:02;;;;;;;0.00;0.00;;;;;;;12.59;76.69;100221.75;7354663;19;20017;-64
2023/04/01 08:14:33;;;;;;;0.03;0.03;;;;;;;12.59;76.87;100216.53;7357481;19;20018;-64
2023/04/01 08:17:30;;;;;;;0.00;0.00;;;;;;;12.63;77.04;100228.59;7358208;19;20033;-64
2023/04/01 08:20:33;;;;;;;0.10;0.10;;;;;;;12.65;77.09;100242.47;7253106;19;2004386;-62
2023/04/01 08:23:12;;;;;;;0.10;0.10;;;;;;;12.58;76.80;100225.28;7255562;19;2004384;-64
2023/04/01 08:25:44;;;;;;;0.10;0.10;;;;;;;12.68;76.85;100241.50;7360604;19;20037;-64
2023/04/01 08:28:17;;;;;;;0.10;0.10;;;;;;;12.70;77.02;100251.00;7339549;19;20624;-64
2023/04/01 08:31:02;;;;;;;0.10;0.10;;;;;;;12.60;76.71;100228.69;7359939;19;20014;-64
2023/04/01 08:33:30;;;;;;;0.10;0.10;;;;;;;12.61;77.22;100235.63;7358085;19;20908;-64
2023/04/01 08:36:11;;;;;;;0.10;0.10;;;;;;;12.81;76.75;100262.84;7360851;19;20924;-63
2023/04/01 08:38:54;;;;;;;0.10;0.10;;;;;;;12.85;76.98;100272.28;7355745;19;20081;-64
2023/04/01 08:41:39;;;;;;;0.00;0.00;;;;;;;12.89;76.93;100279.13;7358697;19;20006;-64
2023/04/01 08:44:30;;;;;;;0.10;0.10;;;;;;;12.93;76.37;100284.19;7359053;19;20010;-63
2023/04/01 08:46:58;;;;;;;0.08;0.08;;;;;;;12.92;76.84;100292.09;7357522;19;20027;-64
2023/04/01 08:49:48;;;;;;;0.10;0.10;;;;;;;12.99;76.54;100298.81;7356547;19;20536;-64
2023/04/01 08:52:43;;;;;;;0.00;0.00;;;;;;;13.00;76.69;100300.53;7358830;19;20770;-64
2023/04/01 08:55:20;;;;;;;0.00;0.00;;;;;;;13.00;76.59;100303.16;7256205;19;2004278;-64
2023/04/01 08:58:00;;;;;;;0.10;0.10;;;;;;;13.00;76.48;100300.53;7356420;19;19998;-64
2023/04/01 09:00:38;;;;;;;0.10;0.10;;;;;;;13.07;76.44;100317.72;7358389;19;20042;-64
2023/04/01 09:03:31;;;;;;;0.00;0.00;;;;;;;13.12;76.50;100323.63;7358250;19;20019;-64
2023/04/01 09:06:02;;;;;;;0.00;0.00;;;;;;;13.10;76.72;100328.09;7257672;19;2004397;-64
2023/04/01 09:08:36;;;;;;;0.10;0.10;;;;;;;13.17;76.23;100324.28;7354859;19;20018;-64
2023/04/01 09:11:17;;;;;;;0.10;0.10;;;;;;;13.23;76.70;100333.75;7356698;19;20865;-64
2023/04/01 09:14:22;;;;;;;0.10;0.10;;;;;;;13.29;76.44;100338.75;7357678;19;20028;-64
2023/04/01 09:17:02;;;;;;;0.00;0.00;;;;;;;13.31;76.72;100342.16;7255919;19;2004319;-64
2023/04/01 09:19:46;;;;;;;0.10;0.10;;;;;;;13.37;76.46;100351.53;7352585;19;20017;-63
2023/04/01 09:22:40;;;;;;;0.10;0.10;;;;;;;13.45;76.09;100352.09;7354656;19;20014;-64
2023/04/01 09:25:22;;;;;;;0.10;0.10;;;;;;;13.56;75.85;100357.75;7250107;19;2004663;-64
2023/04/01 09:28:08;;;;;;;0.00;0.00;;;;;;;13.63;76.19;100369.69;7349759;19;20007;-64
2023/04/01 09:30:39;;;;;;;0.10;0.10;;;;;;;13.65;76.09;100360.00;7347041;19;20013;-64
2023/04/01 09:33:07;;;;;;;0.10;0.10;;;;;;;13.68;75.52;100373.00;7353476;19;20023;-64
2023/04/01 09:35:56;;;;;;;0.00;0.00;;;;;;;13.74;75.75;100372.75;7354896;19;20647;-63
2023/04/01 09:38:46;;;;;;;0.10;0.10;;;;;;;13.76;75.33;100376.16;7353140;19;20791;-64
2023/04/01 09:41:30;;;;;;;0.10;0.10;;;;;;;13.81;75.66;100383.00;7355416;19;20007;-64
2023/04/01 09:44:03;;;;;;;0.00;0.00;;;;;;;13.82;75.39;100387.34;7350601;19;20022;-64
2023/04/01 09:46:48;;;;;;;0.10;0.10;;;;;;;13.88;75.02;100394.94;7354453;19;20011;-64
2023/04/01 09:49:23;;;;;;;0.00;0.00;;;;;;;13.90;74.75;100398.38;7355585;19;20042;-64
2023/04/01 09:52:23;;;;;;;0.00;0.00;;;;;;;13.93;75.20;100403.47;7352851;19;20017;-64
2023/04/01 09:54:51;;;;;;;0.10;0.10;;;;;;;13.92;74.78;100401.78;7255718;19;2004188;-64
2023/04/01 09:57:26;;;;;;;0.08;0.08;;;;;;;13.95;75.14;100414.78;7351537;19;20746;-64
2023/04/01 10:00:04;;;;;;;0.10;0.10;;;;;;;14.00;74.91;100415.47;7354274;19;20027;-64
2023/04/01 10:03:13;;;;;;;0.10;0.10;;;;;;;14.12;75.08;100420.19;7352445;19;20002;-64
2023/04/01 10:05:51;;;;;;;0.10;0.10;;;;;;;14.18;75.02;100422.56;7252034;19;2005581;-64
2023/04/01 10:08:34;;;;;;;0.10;0.10;;;;;;;14.23;74.96;100423.22;7355888;19;20085;-64
2023/04/01 10:11:42;;;;;;;0.03;0.03;;;;;;;14.22;74.80;100416.25;7354518;19;20051;-64
2023/04/01 10:14:45;;;;;;;0.10;0.10;;;;;;;14.10;75.19;100381.81;7247260;19;2004437;-64
2023/04/01 10:17:45;;;;;;;0.00;0.00;;;;;;;14.55;74.85;100444.69;7245571;19;2005566;-63
2023/04/01 10:20:28;;;;;;;0.10;0.10;;;;;;;14.55;74.85;100426.28;7249395;19;2004510;-63
2023/04/01 10:23:27;;;;;;;0.10;0.10;;;;;;;14.76;74.42;100454.25;7356129;19;20023;-64
2023/04/01 10:26:07;;;;;;;0.10;0.10;;;;;;;14.86;74.19;100459.13;7250337;19;2004082;-64
2023/04/01 10:28:48;;;;;;;0.10;0.10;;;;;;;14.97;74.07;100468.22;7355083;19;21355;-64
2023/04/01 10:31:47;;;;;;;0.10;0.10;;;;;;;15.06;74.25;100461.69;7355168;19;20706;-64
2023/04/01 10:34:19;;;;;;;0.10;0.10;;;;;;;15.12;73.69;100471.94;7254366;19;2004167;-64
2023/04/01 10:36:56;;;;;;;0.00;0.00;;;;;;;15.20;74.05;100469.78;7350019;19;20021;-64
2023/04/01 10:39:43;;;;;;;0.10;0.10;;;;;;;15.24;73.76;100474.00;7353108;19;20344;-64
2023/04/01 10:42:27;;;;;;;0.10;0.10;;;;;;;15.27;73.41;100480.91;7355848;19;20739;-64
2023/04/01 10:45:30;;;;;;;0.10;0.10;;;;;;;15.41;73.45;100493.41;7354014;19;20387;-64
2023/04/01 10:48:22;;;;;;;0.10;0.10;;;;;;;15.48;73.39;100498.34;7251831;19;2004488;-64
2023/04/01 10:51:16;;;;;;;0.10;0.10;;;;;;;15.53;73.32;100498.13;7355438;19;20026;-64
2023/04/01 10:54:00;;;;;;;0.10;0.10;;;;;;;15.62;73.33;100504.75;7246703;19;2004370;-64
2023/04/01 10:56:34;;;;;;;0.03;0.03;;;;;;;15.63;72.53;100507.34;7352341;19;20002;-64
2023/04/01 10:59:15;;;;;;;0.08;0.08;;;;;;;15.64;71.95;100514.31;7353275;19;20842;-64
2023/04/01 11:02:00;;;;;;;0.10;0.10;;;;;;;15.74;72.55;100512.94;7355772;19;20452;-64
2023/04/01 11:04:56;;;;;;;0.05;0.05;;;;;;;15.79;72.55;100525.91;7354603;19;20847;-64
2023/04/01 11:07:52;;;;;;;0.10;0.10;;;;;;;15.86;72.36;100521.19;7251253;19;2004291;-64
2023/04/01 11:10:34;;;;;;;0.10;0.10;;;;;;;15.87;71.88;100528.19;7251050;19;2005647;-63
2023/04/01 11:13:27;;;;;;;0.03;0.03;;;;;;;16.04;72.67;100536.13;7346790;19;20473;-64
2023/04/01 11:16:26;;;;;;;0.00;0.00;;;;;;;16.16;72.52;100535.53;7249873;19;2004383;-64
2023/04/01 11:19:16;;;;;;;0.10;0.10;;;;;;;16.27;72.29;100529.72;7230822;19;2004419;-64
2023/04/01 11:21:59;;;;;;;0.10;0.10;;;;;;;16.40;72.19;100544.03;7346941;19;20027;-64
2023/04/01 11:24:33;;;;;;;0.10;0.10;;;;;;;16.48;71.96;100546.28;7348205;19;20010;-64
2023/04/01 11:27:29;;;;;;;0.10;0.10;;;;;;;16.61;71.76;100552.63;7350779;19;20737;-64
2023/04/01 11:30:07;;;;;;;0.10;0.10;;;;;;;16.70;71.55;100557.47;7250067;19;2004841;-64
2023/04/01 11:32:35;;;;;;;;;;;;;;;16.85;72.26;100556.72;7351075;19;20720;-64
2023/04/01 11:35:12;;;;;;;0.00;0.00;;;;;;;16.97;71.69;100564.91;7350344;19;19928;-64
2023/04/01 11:37:46;;;;;;;;;;;;;;;17.18;72.32;100574.34;7351651;19;20121;-64
2023/04/01 11:40:43;;;;;;;0.10;0.10;;;;;;;17.34;71.20;100585.00;7349204;19;20540;-64
2023/04/01 11:43:21;;;;;;;0.10;0.10;;;;;;;17.54;71.16;100581.31;7243529;19;2004432;-60
2023/04/01 11:45:58;;;;;;;0.10;0.10;;;;;;;17.71;70.51;100586.50;7350196;19;20014;-64
2023/04/01 11:48:33;;;;;;;0.10;0.10;;;;;;;17.88;69.91;100585.63;7349397;19;20718;-64
2023/04/01 11:51:06;;;;;;;0.10;0.10;;;;;;;17.97;69.48;100594.84;7351566;19;20811;-64
2023/04/01 11:53:43;;;;;;;0.10;0.10;;;;;;;18.21;69.97;100598.78;7352019;19;20478;-64
2023/04/01 11:56:20;;;;;;;0.10;0.10;;;;;;;18.37;69.25;100606.69;7353025;19;19998;-64
2023/04/01 11:59:00;;;;;;;0.05;0.05;;;;;;;18.63;69.84;100608.69;7356096;19;20011;-64
2023/04/01 12:01:51;;;;;;;0.10;0.10;;;;;;;18.78;69.84;100600.84;7362149;19;20014;-64
2023/04/01 12:04:38;;;;;;;0.10;0.10;;;;;;;19.00;68.39;100618.94;7350911;19;20078;-64